sensor_id;sensor_type;location;lat;lon;timestamp;P1;durP1;ratioP1;P2;durP2;ratioP2
14923;SDS011;7554;43.600;1.480;2023-04-25T00:01:06;5.77;;;3.17;;
14923;SDS011;7554;43.600;1.480;2023-04-25T00:03:34;5.00;;;3.33;;
14923;SDS011;7554;43.600;1.480;2023-04-25T00:06:03;6.10;;;3.53;;
14923;SDS011;7554;43.600;1.480;2023-04-25T00:08:33;6.93;;;3.40;;
14923;SDS011;7554;43.600;1.480;2023-04-25T00:11:00;4.80;;;3.10;;
14923;SDS011;7554;43.600;1.480;2023-04-25T00:13:28;7.70;;;3.67;;
14923;SDS011;7554;43.600;1.480;2023-04-25T00:15:56;7.27;;;3.63;;
14923;SDS011;7554;43.600;1.480;2023-04-25T00:18:24;4.70;;;2.97;;
14923;SDS011;7554;43.600;1.480;2023-04-25T00:20:54;7.37;;;3.60;;
14923;SDS011;7554;43.600;1.480;2023-04-25T00:23:22;6.87;;;3.53;;
14923;SDS011;7554;43.600;1.480;2023-04-25T00:25:51;5.40;;;3.60;;
14923;SDS011;7554;43.600;1.480;2023-04-25T00:28:18;5.70;;;3.57;;
14923;SDS011;7554;43.600;1.480;2023-04-25T00:30:45;6.23;;;3.83;;
14923;SDS011;7554;43.600;1.480;2023-04-25T00:33:13;5.97;;;3.87;;
14923;SDS011;7554;43.600;1.480;2023-04-25T00:35:40;6.03;;;3.47;;
14923;SDS011;7554;43.600;1.480;2023-04-25T00:38:08;8.23;;;3.90;;
14923;SDS011;7554;43.600;1.480;2023-04-25T00:40:35;5.73;;;3.50;;
14923;SDS011;7554;43.600;1.480;2023-04-25T00:43:04;5.60;;;3.80;;
14923;SDS011;7554;43.600;1.480;2023-04-25T00:45:31;6.13;;;3.73;;
14923;SDS011;7554;43.600;1.480;2023-04-25T00:48:04;6.70;;;4.00;;
14923;SDS011;7554;43.600;1.480;2023-04-25T00:50:32;4.30;;;3.27;;
14923;SDS011;7554;43.600;1.480;2023-04-25T00:53:00;6.70;;;4.00;;
14923;SDS011;7554;43.600;1.480;2023-04-25T00:55:28;4.83;;;3.73;;
14923;SDS011;7554;43.600;1.480;2023-04-25T00:57:56;4.73;;;3.53;;
14923;SDS011;7554;43.600;1.480;2023-04-25T01:00:25;7.43;;;3.37;;
14923;SDS011;7554;43.600;1.480;2023-04-25T01:02:53;5.77;;;4.10;;
14923;SDS011;7554;43.600;1.480;2023-04-25T01:05:20;5.60;;;3.43;;
14923;SDS011;7554;43.600;1.480;2023-04-25T01:07:47;4.80;;;3.17;;
14923;SDS011;7554;43.600;1.480;2023-04-25T01:10:15;7.83;;;3.67;;
14923;SDS011;7554;43.600;1.480;2023-04-25T01:12:42;5.50;;;3.60;;
14923;SDS011;7554;43.600;1.480;2023-04-25T01:15:10;5.57;;;3.50;;
14923;SDS011;7554;43.600;1.480;2023-04-25T01:17:38;6.93;;;3.23;;
14923;SDS011;7554;43.600;1.480;2023-04-25T01:20:09;7.40;;;3.13;;
14923;SDS011;7554;43.600;1.480;2023-04-25T01:22:39;7.33;;;3.30;;
14923;SDS011;7554;43.600;1.480;2023-04-25T01:25:07;5.43;;;2.90;;
14923;SDS011;7554;43.600;1.480;2023-04-25T01:27:35;5.43;;;3.10;;
14923;SDS011;7554;43.600;1.480;2023-04-25T01:30:03;4.77;;;3.10;;
14923;SDS011;7554;43.600;1.480;2023-04-25T01:32:32;5.33;;;3.17;;
14923;SDS011;7554;43.600;1.480;2023-04-25T01:35:03;5.00;;;2.83;;
14923;SDS011;7554;43.600;1.480;2023-04-25T01:37:34;4.30;;;2.80;;
14923;SDS011;7554;43.600;1.480;2023-04-25T01:40:04;5.97;;;2.90;;
14923;SDS011;7554;43.600;1.480;2023-04-25T01:42:34;4.40;;;2.50;;
14923;SDS011;7554;43.600;1.480;2023-04-25T01:45:02;2.47;;;1.93;;
14923;SDS011;7554;43.600;1.480;2023-04-25T01:47:30;3.37;;;1.80;;
14923;SDS011;7554;43.600;1.480;2023-04-25T01:50:01;3.73;;;1.60;;
14923;SDS011;7554;43.600;1.480;2023-04-25T01:52:29;2.80;;;1.50;;
14923;SDS011;7554;43.600;1.480;2023-04-25T01:54:57;1.53;;;1.00;;
14923;SDS011;7554;43.600;1.480;2023-04-25T01:57:27;1.60;;;1.20;;
14923;SDS011;7554;43.600;1.480;2023-04-25T01:59:54;1.23;;;1.07;;
14923;SDS011;7554;43.600;1.480;2023-04-25T02:02:25;2.47;;;1.30;;
14923;SDS011;7554;43.600;1.480;2023-04-25T02:04:52;2.93;;;1.30;;
14923;SDS011;7554;43.600;1.480;2023-04-25T02:07:21;2.40;;;1.07;;
14923;SDS011;7554;43.600;1.480;2023-04-25T02:09:48;1.43;;;0.80;;
14923;SDS011;7554;43.600;1.480;2023-04-25T02:12:16;2.33;;;1.17;;
14923;SDS011;7554;43.600;1.480;2023-04-25T02:14:44;2.00;;;0.93;;
14923;SDS011;7554;43.600;1.480;2023-04-25T02:17:12;2.03;;;0.80;;
14923;SDS011;7554;43.600;1.480;2023-04-25T02:19:39;1.67;;;1.07;;
14923;SDS011;7554;43.600;1.480;2023-04-25T02:22:06;1.70;;;0.77;;
14923;SDS011;7554;43.600;1.480;2023-04-25T02:24:34;1.13;;;0.90;;
14923;SDS011;7554;43.600;1.480;2023-04-25T02:27:01;1.73;;;0.90;;
14923;SDS011;7554;43.600;1.480;2023-04-25T02:29:29;1.63;;;0.60;;
14923;SDS011;7554;43.600;1.480;2023-04-25T02:31:57;2.27;;;0.80;;
14923;SDS011;7554;43.600;1.480;2023-04-25T02:34:25;0.77;;;0.50;;
14923;SDS011;7554;43.600;1.480;2023-04-25T02:36:52;2.83;;;1.20;;
14923;SDS011;7554;43.600;1.480;2023-04-25T02:39:20;1.80;;;0.90;;
14923;SDS011;7554;43.600;1.480;2023-04-25T02:41:50;0.80;;;0.60;;
14923;SDS011;7554;43.600;1.480;2023-04-25T02:44:18;0.93;;;0.60;;
14923;SDS011;7554;43.600;1.480;2023-04-25T02:46:45;0.80;;;0.60;;
14923;SDS011;7554;43.600;1.480;2023-04-25T02:49:14;0.70;;;0.40;;
14923;SDS011;7554;43.600;1.480;2023-04-25T02:51:41;1.27;;;0.50;;
14923;SDS011;7554;43.600;1.480;2023-04-25T02:54:08;1.40;;;0.60;;
14923;SDS011;7554;43.600;1.480;2023-04-25T02:56:35;1.07;;;0.53;;
14923;SDS011;7554;43.600;1.480;2023-04-25T02:59:03;0.87;;;0.37;;
14923;SDS011;7554;43.600;1.480;2023-04-25T03:01:30;0.83;;;0.57;;
14923;SDS011;7554;43.600;1.480;2023-04-25T03:03:58;0.90;;;0.47;;
14923;SDS011;7554;43.600;1.480;2023-04-25T03:06:26;0.90;;;0.33;;
14923;SDS011;7554;43.600;1.480;2023-04-25T03:08:54;1.90;;;0.40;;
14923;SDS011;7554;43.600;1.480;2023-04-25T03:11:21;0.60;;;0.30;;
14923;SDS011;7554;43.600;1.480;2023-04-25T03:13:48;0.87;;;0.50;;
14923;SDS011;7554;43.600;1.480;2023-04-25T03:16:15;1.37;;;0.60;;
14923;SDS011;7554;43.600;1.480;2023-04-25T03:18:43;0.60;;;0.40;;
14923;SDS011;7554;43.600;1.480;2023-04-25T03:21:10;0.57;;;0.40;;
14923;SDS011;7554;43.600;1.480;2023-04-25T03:23:39;0.90;;;0.50;;
14923;SDS011;7554;43.600;1.480;2023-04-25T03:26:06;6.67;;;0.60;;
14923;SDS011;7554;43.600;1.480;2023-04-25T03:28:33;0.60;;;0.40;;
14923;SDS011;7554;43.600;1.480;2023-04-25T03:31:01;0.50;;;0.40;;
14923;SDS011;7554;43.600;1.480;2023-04-25T03:33:28;0.83;;;0.53;;
14923;SDS011;7554;43.600;1.480;2023-04-25T03:35:55;1.23;;;0.67;;
14923;SDS011;7554;43.600;1.480;2023-04-25T03:38:23;0.70;;;0.50;;
14923;SDS011;7554;43.600;1.480;2023-04-25T03:40:52;0.67;;;0.50;;
14923;SDS011;7554;43.600;1.480;2023-04-25T03:43:19;0.60;;;0.50;;
14923;SDS011;7554;43.600;1.480;2023-04-25T03:45:46;0.80;;;0.50;;
14923;SDS011;7554;43.600;1.480;2023-04-25T03:48:13;0.77;;;0.40;;
14923;SDS011;7554;43.600;1.480;2023-04-25T03:50:41;1.00;;;0.60;;
14923;SDS011;7554;43.600;1.480;2023-04-25T03:53:08;2.30;;;0.60;;
14923;SDS011;7554;43.600;1.480;2023-04-25T03:55:35;1.10;;;0.60;;
14923;SDS011;7554;43.600;1.480;2023-04-25T03:58:04;1.90;;;0.60;;
14923;SDS011;7554;43.600;1.480;2023-04-25T04:00:33;0.80;;;0.60;;
14923;SDS011;7554;43.600;1.480;2023-04-25T04:03:00;1.27;;;0.60;;
14923;SDS011;7554;43.600;1.480;2023-04-25T04:05:28;1.17;;;0.60;;
14923;SDS011;7554;43.600;1.480;2023-04-25T04:07:56;0.63;;;0.60;;
14923;SDS011;7554;43.600;1.480;2023-04-25T04:10:37;1.63;;;0.40;;
14923;SDS011;7554;43.600;1.480;2023-04-25T04:13:05;2.97;;;0.70;;
14923;SDS011;7554;43.600;1.480;2023-04-25T04:15:33;1.80;;;0.57;;
14923;SDS011;7554;43.600;1.480;2023-04-25T04:18:00;1.43;;;0.50;;
14923;SDS011;7554;43.600;1.480;2023-04-25T04:20:28;0.70;;;0.57;;
14923;SDS011;7554;43.600;1.480;2023-04-25T04:22:56;1.27;;;0.70;;
14923;SDS011;7554;43.600;1.480;2023-04-25T04:25:23;3.00;;;0.90;;
14923;SDS011;7554;43.600;1.480;2023-04-25T04:27:51;1.63;;;0.77;;
14923;SDS011;7554;43.600;1.480;2023-04-25T04:30:21;0.93;;;0.60;;
14923;SDS011;7554;43.600;1.480;2023-04-25T04:32:50;0.80;;;0.60;;
14923;SDS011;7554;43.600;1.480;2023-04-25T04:35:18;1.33;;;0.80;;
14923;SDS011;7554;43.600;1.480;2023-04-25T04:37:45;1.07;;;0.80;;
14923;SDS011;7554;43.600;1.480;2023-04-25T04:40:13;0.70;;;0.60;;
14923;SDS011;7554;43.600;1.480;2023-04-25T04:42:41;1.20;;;0.60;;
14923;SDS011;7554;43.600;1.480;2023-04-25T04:45:09;1.13;;;0.87;;
14923;SDS011;7554;43.600;1.480;2023-04-25T04:47:38;1.67;;;0.90;;
14923;SDS011;7554;43.600;1.480;2023-04-25T04:50:06;1.90;;;1.10;;
14923;SDS011;7554;43.600;1.480;2023-04-25T04:52:35;1.10;;;0.83;;
14923;SDS011;7554;43.600;1.480;2023-04-25T04:55:03;1.50;;;0.67;;
14923;SDS011;7554;43.600;1.480;2023-04-25T04:57:31;2.17;;;1.00;;
14923;SDS011;7554;43.600;1.480;2023-04-25T04:59:59;1.20;;;0.80;;
14923;SDS011;7554;43.600;1.480;2023-04-25T05:02:26;2.33;;;1.47;;
14923;SDS011;7554;43.600;1.480;2023-04-25T05:04:55;1.47;;;1.00;;
14923;SDS011;7554;43.600;1.480;2023-04-25T05:07:23;3.80;;;0.97;;
14923;SDS011;7554;43.600;1.480;2023-04-25T05:09:50;3.23;;;1.00;;
14923;SDS011;7554;43.600;1.480;2023-04-25T05:12:17;2.47;;;0.93;;
14923;SDS011;7554;43.600;1.480;2023-04-25T05:14:44;2.33;;;1.00;;
14923;SDS011;7554;43.600;1.480;2023-04-25T05:17:12;4.07;;;1.47;;
14923;SDS011;7554;43.600;1.480;2023-04-25T05:19:39;3.70;;;1.33;;
14923;SDS011;7554;43.600;1.480;2023-04-25T05:22:08;1.90;;;1.20;;
14923;SDS011;7554;43.600;1.480;2023-04-25T05:24:35;1.53;;;1.00;;
14923;SDS011;7554;43.600;1.480;2023-04-25T05:27:03;2.00;;;1.17;;
14923;SDS011;7554;43.600;1.480;2023-04-25T05:29:30;2.80;;;1.50;;
14923;SDS011;7554;43.600;1.480;2023-04-25T05:31:58;3.13;;;1.20;;
14923;SDS011;7554;43.600;1.480;2023-04-25T05:34:25;1.27;;;1.10;;
14923;SDS011;7554;43.600;1.480;2023-04-25T05:36:52;3.90;;;1.20;;
14923;SDS011;7554;43.600;1.480;2023-04-25T05:39:22;1.60;;;1.00;;
14923;SDS011;7554;43.600;1.480;2023-04-25T05:41:49;1.83;;;1.07;;
14923;SDS011;7554;43.600;1.480;2023-04-25T05:44:16;2.00;;;1.20;;
14923;SDS011;7554;43.600;1.480;2023-04-25T05:46:44;1.70;;;0.90;;
14923;SDS011;7554;43.600;1.480;2023-04-25T05:49:11;2.83;;;1.17;;
14923;SDS011;7554;43.600;1.480;2023-04-25T05:51:38;1.10;;;1.00;;
14923;SDS011;7554;43.600;1.480;2023-04-25T05:54:06;2.33;;;1.00;;
14923;SDS011;7554;43.600;1.480;2023-04-25T05:56:34;1.90;;;1.10;;
14923;SDS011;7554;43.600;1.480;2023-04-25T05:59:02;2.70;;;1.50;;
14923;SDS011;7554;43.600;1.480;2023-04-25T06:01:29;2.73;;;1.10;;
14923;SDS011;7554;43.600;1.480;2023-04-25T06:03:57;1.27;;;1.00;;
14923;SDS011;7554;43.600;1.480;2023-04-25T06:06:24;3.60;;;1.20;;
14923;SDS011;7554;43.600;1.480;2023-04-25T06:08:52;2.30;;;1.70;;
14923;SDS011;7554;43.600;1.480;2023-04-25T06:11:19;3.43;;;1.93;;
14923;SDS011;7554;43.600;1.480;2023-04-25T06:13:48;1.93;;;1.40;;
14923;SDS011;7554;43.600;1.480;2023-04-25T06:16:15;2.80;;;1.30;;
14923;SDS011;7554;43.600;1.480;2023-04-25T06:18:43;2.07;;;1.20;;
14923;SDS011;7554;43.600;1.480;2023-04-25T06:21:10;2.40;;;1.00;;
14923;SDS011;7554;43.600;1.480;2023-04-25T06:23:37;3.37;;;1.27;;
14923;SDS011;7554;43.600;1.480;2023-04-25T06:26:05;1.50;;;1.27;;
14923;SDS011;7554;43.600;1.480;2023-04-25T06:28:32;1.97;;;1.10;;
14923;SDS011;7554;43.600;1.480;2023-04-25T06:31:01;1.27;;;1.10;;
14923;SDS011;7554;43.600;1.480;2023-04-25T06:33:28;1.40;;;1.20;;
14923;SDS011;7554;43.600;1.480;2023-04-25T06:35:55;6.33;;;1.40;;
14923;SDS011;7554;43.600;1.480;2023-04-25T06:38:23;4.33;;;1.20;;
14923;SDS011;7554;43.600;1.480;2023-04-25T06:40:50;3.37;;;1.23;;
14923;SDS011;7554;43.600;1.480;2023-04-25T06:43:17;4.50;;;1.73;;
14923;SDS011;7554;43.600;1.480;2023-04-25T06:45:45;0.90;;;0.80;;
14923;SDS011;7554;43.600;1.480;2023-04-25T06:48:13;2.17;;;1.00;;
14923;SDS011;7554;43.600;1.480;2023-04-25T06:50:41;3.43;;;1.53;;
14923;SDS011;7554;43.600;1.480;2023-04-25T06:53:08;1.47;;;1.20;;
14923;SDS011;7554;43.600;1.480;2023-04-25T06:55:36;1.70;;;0.90;;
14923;SDS011;7554;43.600;1.480;2023-04-25T06:58:04;1.70;;;0.77;;
14923;SDS011;7554;43.600;1.480;2023-04-25T07:00:32;3.03;;;0.70;;
14923;SDS011;7554;43.600;1.480;2023-04-25T07:02:59;1.13;;;0.70;;
14923;SDS011;7554;43.600;1.480;2023-04-25T07:05:28;1.00;;;0.90;;
14923;SDS011;7554;43.600;1.480;2023-04-25T07:07:55;1.10;;;0.90;;
14923;SDS011;7554;43.600;1.480;2023-04-25T07:10:23;1.20;;;0.90;;
14923;SDS011;7554;43.600;1.480;2023-04-25T07:12:50;1.30;;;0.90;;
14923;SDS011;7554;43.600;1.480;2023-04-25T07:15:18;2.03;;;1.17;;
14923;SDS011;7554;43.600;1.480;2023-04-25T07:17:45;0.73;;;0.70;;
14923;SDS011;7554;43.600;1.480;2023-04-25T07:20:12;1.40;;;0.80;;
14923;SDS011;7554;43.600;1.480;2023-04-25T07:22:42;2.60;;;1.10;;
14923;SDS011;7554;43.600;1.480;2023-04-25T07:25:10;2.37;;;1.10;;
14923;SDS011;7554;43.600;1.480;2023-04-25T07:27:37;0.90;;;0.50;;
14923;SDS011;7554;43.600;1.480;2023-04-25T07:30:06;1.70;;;0.30;;
14923;SDS011;7554;43.600;1.480;2023-04-25T07:32:34;0.30;;;0.07;;
14923;SDS011;7554;43.600;1.480;2023-04-25T07:35:01;2.07;;;0.20;;
14923;SDS011;7554;43.600;1.480;2023-04-25T07:37:29;0.40;;;0.10;;
14923;SDS011;7554;43.600;1.480;2023-04-25T07:39:58;0.40;;;0.20;;
14923;SDS011;7554;43.600;1.480;2023-04-25T07:42:25;0.93;;;0.40;;
14923;SDS011;7554;43.600;1.480;2023-04-25T07:44:53;0.40;;;0.20;;
14923;SDS011;7554;43.600;1.480;2023-04-25T07:47:20;1.60;;;0.80;;
14923;SDS011;7554;43.600;1.480;2023-04-25T07:49:47;0.90;;;0.47;;
14923;SDS011;7554;43.600;1.480;2023-04-25T07:52:15;1.60;;;0.30;;
14923;SDS011;7554;43.600;1.480;2023-04-25T07:54:42;0.70;;;0.30;;
14923;SDS011;7554;43.600;1.480;2023-04-25T07:57:11;1.10;;;0.60;;
14923;SDS011;7554;43.600;1.480;2023-04-25T07:59:39;0.50;;;0.40;;
14923;SDS011;7554;43.600;1.480;2023-04-25T08:02:06;2.97;;;0.50;;
14923;SDS011;7554;43.600;1.480;2023-04-25T08:04:34;15.20;;;0.63;;
14923;SDS011;7554;43.600;1.480;2023-04-25T08:07:01;2.60;;;0.40;;
14923;SDS011;7554;43.600;1.480;2023-04-25T08:09:28;1.57;;;0.50;;
14923;SDS011;7554;43.600;1.480;2023-04-25T08:11:59;3.53;;;0.83;;
14923;SDS011;7554;43.600;1.480;2023-04-25T08:14:30;0.70;;;0.40;;
14923;SDS011;7554;43.600;1.480;2023-04-25T08:17:01;3.77;;;0.80;;
14923;SDS011;7554;43.600;1.480;2023-04-25T08:19:28;5.07;;;0.60;;
14923;SDS011;7554;43.600;1.480;2023-04-25T08:21:56;4.07;;;0.70;;
14923;SDS011;7554;43.600;1.480;2023-04-25T08:24:24;1.20;;;0.50;;
14923;SDS011;7554;43.600;1.480;2023-04-25T08:26:51;2.07;;;0.80;;
14923;SDS011;7554;43.600;1.480;2023-04-25T08:29:19;2.00;;;0.83;;
14923;SDS011;7554;43.600;1.480;2023-04-25T08:31:49;1.20;;;0.60;;
14923;SDS011;7554;43.600;1.480;2023-04-25T08:34:17;0.80;;;0.60;;
14923;SDS011;7554;43.600;1.480;2023-04-25T08:36:45;0.83;;;0.70;;
14923;SDS011;7554;43.600;1.480;2023-04-25T08:39:12;1.33;;;0.80;;
14923;SDS011;7554;43.600;1.480;2023-04-25T08:41:40;0.83;;;0.80;;
14923;SDS011;7554;43.600;1.480;2023-04-25T08:44:08;1.30;;;0.90;;
14923;SDS011;7554;43.600;1.480;2023-04-25T08:46:38;2.50;;;0.90;;
14923;SDS011;7554;43.600;1.480;2023-04-25T08:49:07;2.30;;;0.90;;
14923;SDS011;7554;43.600;1.480;2023-04-25T08:51:36;1.50;;;0.93;;
14923;SDS011;7554;43.600;1.480;2023-04-25T08:54:12;1.03;;;0.63;;
14923;SDS011;7554;43.600;1.480;2023-04-25T08:56:40;2.03;;;0.90;;
14923;SDS011;7554;43.600;1.480;2023-04-25T08:59:10;1.00;;;0.80;;
14923;SDS011;7554;43.600;1.480;2023-04-25T09:01:38;2.23;;;0.80;;
14923;SDS011;7554;43.600;1.480;2023-04-25T09:04:07;2.40;;;1.10;;
14923;SDS011;7554;43.600;1.480;2023-04-25T09:06:34;5.00;;;1.70;;
14923;SDS011;7554;43.600;1.480;2023-04-25T09:09:02;2.47;;;1.00;;
14923;SDS011;7554;43.600;1.480;2023-04-25T09:11:31;1.83;;;0.80;;
14923;SDS011;7554;43.600;1.480;2023-04-25T09:14:11;0.77;;;0.70;;
14923;SDS011;7554;43.600;1.480;2023-04-25T09:16:59;1.77;;;0.80;;
14923;SDS011;7554;43.600;1.480;2023-04-25T09:19:30;1.43;;;1.00;;
14923;SDS011;7554;43.600;1.480;2023-04-25T09:22:00;2.30;;;0.90;;
14923;SDS011;7554;43.600;1.480;2023-04-25T09:24:30;2.30;;;1.17;;
14923;SDS011;7554;43.600;1.480;2023-04-25T09:26:58;0.77;;;0.60;;
14923;SDS011;7554;43.600;1.480;2023-04-25T09:29:29;1.50;;;0.83;;
14923;SDS011;7554;43.600;1.480;2023-04-25T09:32:10;0.60;;;0.53;;
14923;SDS011;7554;43.600;1.480;2023-04-25T09:34:41;2.97;;;2.17;;
14923;SDS011;7554;43.600;1.480;2023-04-25T09:37:10;1.70;;;1.30;;
14923;SDS011;7554;43.600;1.480;2023-04-25T09:39:38;2.90;;;1.10;;
14923;SDS011;7554;43.600;1.480;2023-04-25T09:42:05;0.80;;;0.80;;
14923;SDS011;7554;43.600;1.480;2023-04-25T09:44:33;2.23;;;1.00;;
14923;SDS011;7554;43.600;1.480;2023-04-25T09:47:00;1.43;;;0.80;;
14923;SDS011;7554;43.600;1.480;2023-04-25T09:49:28;1.97;;;1.00;;
14923;SDS011;7554;43.600;1.480;2023-04-25T09:51:57;1.97;;;0.90;;
14923;SDS011;7554;43.600;1.480;2023-04-25T09:54:25;2.07;;;1.10;;
14923;SDS011;7554;43.600;1.480;2023-04-25T09:56:53;1.50;;;1.13;;
14923;SDS011;7554;43.600;1.480;2023-04-25T09:59:20;2.37;;;1.10;;
14923;SDS011;7554;43.600;1.480;2023-04-25T10:01:49;2.17;;;1.00;;
14923;SDS011;7554;43.600;1.480;2023-04-25T10:04:18;2.17;;;1.13;;
14923;SDS011;7554;43.600;1.480;2023-04-25T10:06:49;1.73;;;1.00;;
14923;SDS011;7554;43.600;1.480;2023-04-25T10:09:20;3.33;;;1.00;;
14923;SDS011;7554;43.600;1.480;2023-04-25T10:11:48;2.17;;;1.00;;
14923;SDS011;7554;43.600;1.480;2023-04-25T10:14:16;2.47;;;0.90;;
14923;SDS011;7554;43.600;1.480;2023-04-25T10:16:44;2.83;;;1.23;;
14923;SDS011;7554;43.600;1.480;2023-04-25T10:19:13;2.27;;;1.27;;
14923;SDS011;7554;43.600;1.480;2023-04-25T10:21:44;1.10;;;0.80;;
14923;SDS011;7554;43.600;1.480;2023-04-25T10:24:16;1.43;;;1.00;;
14923;SDS011;7554;43.600;1.480;2023-04-25T10:26:45;1.20;;;1.00;;
14923;SDS011;7554;43.600;1.480;2023-04-25T10:29:14;1.20;;;1.10;;
14923;SDS011;7554;43.600;1.480;2023-04-25T10:31:49;3.13;;;1.40;;
14923;SDS011;7554;43.600;1.480;2023-04-25T10:34:16;1.30;;;1.20;;
14923;SDS011;7554;43.600;1.480;2023-04-25T10:36:48;1.07;;;0.80;;
14923;SDS011;7554;43.600;1.480;2023-04-25T10:39:21;1.10;;;0.98;;
14923;SDS011;7554;43.600;1.480;2023-04-25T10:41:55;1.70;;;0.83;;
14923;SDS011;7554;43.600;1.480;2023-04-25T10:44:26;3.23;;;1.00;;
14923;SDS011;7554;43.600;1.480;2023-04-25T10:46:54;1.87;;;1.10;;
14923;SDS011;7554;43.600;1.480;2023-04-25T10:49:31;1.80;;;0.97;;
14923;SDS011;7554;43.600;1.480;2023-04-25T10:52:15;4.70;;;1.00;;
14923;SDS011;7554;43.600;1.480;2023-04-25T10:54:48;1.53;;;0.93;;
14923;SDS011;7554;43.600;1.480;2023-04-25T10:57:29;2.20;;;1.10;;
14923;SDS011;7554;43.600;1.480;2023-04-25T11:00:05;1.43;;;1.00;;
14923;SDS011;7554;43.600;1.480;2023-04-25T11:02:42;1.17;;;0.77;;
14923;SDS011;7554;43.600;1.480;2023-04-25T11:05:16;2.50;;;0.70;;
14923;SDS011;7554;43.600;1.480;2023-04-25T11:07:49;1.07;;;0.80;;
14923;SDS011;7554;43.600;1.480;2023-04-25T11:10:18;0.77;;;0.60;;
14923;SDS011;7554;43.600;1.480;2023-04-25T11:12:47;1.50;;;0.67;;
14923;SDS011;7554;43.600;1.480;2023-04-25T11:15:15;1.30;;;0.60;;
14923;SDS011;7554;43.600;1.480;2023-04-25T11:17:42;1.23;;;0.90;;
14923;SDS011;7554;43.600;1.480;2023-04-25T11:20:11;1.00;;;0.67;;
14923;SDS011;7554;43.600;1.480;2023-04-25T11:22:40;1.50;;;1.10;;
14923;SDS011;7554;43.600;1.480;2023-04-25T11:25:11;2.17;;;1.20;;
14923;SDS011;7554;43.600;1.480;2023-04-25T11:27:50;2.23;;;1.50;;
14923;SDS011;7554;43.600;1.480;2023-04-25T11:30:17;1.30;;;1.10;;
14923;SDS011;7554;43.600;1.480;2023-04-25T11:32:45;1.20;;;0.87;;
14923;SDS011;7554;43.600;1.480;2023-04-25T11:35:13;1.73;;;1.00;;
14923;SDS011;7554;43.600;1.480;2023-04-25T11:37:42;1.93;;;1.20;;
14923;SDS011;7554;43.600;1.480;2023-04-25T11:40:10;1.70;;;0.87;;
14923;SDS011;7554;43.600;1.480;2023-04-25T11:42:38;1.67;;;0.80;;
14923;SDS011;7554;43.600;1.480;2023-04-25T11:45:07;0.87;;;0.67;;
14923;SDS011;7554;43.600;1.480;2023-04-25T11:47:35;1.00;;;0.57;;
14923;SDS011;7554;43.600;1.480;2023-04-25T11:50:03;0.97;;;0.80;;
14923;SDS011;7554;43.600;1.480;2023-04-25T11:52:36;1.30;;;0.70;;
14923;SDS011;7554;43.600;1.480;2023-04-25T11:55:05;2.63;;;1.00;;
14923;SDS011;7554;43.600;1.480;2023-04-25T11:57:34;0.80;;;0.70;;
14923;SDS011;7554;43.600;1.480;2023-04-25T12:00:07;1.10;;;0.77;;
14923;SDS011;7554;43.600;1.480;2023-04-25T12:02:40;1.03;;;0.83;;
14923;SDS011;7554;43.600;1.480;2023-04-25T12:05:08;5.40;;;2.67;;
14923;SDS011;7554;43.600;1.480;2023-04-25T12:07:36;9.40;;;4.43;;
14923;SDS011;7554;43.600;1.480;2023-04-25T12:10:04;1.33;;;0.80;;
14923;SDS011;7554;43.600;1.480;2023-04-25T12:12:33;6.97;;;3.50;;
14923;SDS011;7554;43.600;1.480;2023-04-25T12:15:12;2.13;;;1.30;;
14923;SDS011;7554;43.600;1.480;2023-04-25T12:17:44;3.17;;;2.10;;
14923;SDS011;7554;43.600;1.480;2023-04-25T12:20:13;4.00;;;1.73;;
14923;SDS011;7554;43.600;1.480;2023-04-25T12:22:42;13.93;;;6.60;;
14923;SDS011;7554;43.600;1.480;2023-04-25T12:25:11;0.90;;;0.80;;
14923;SDS011;7554;43.600;1.480;2023-04-25T12:27:39;0.47;;;0.40;;
14923;SDS011;7554;43.600;1.480;2023-04-25T12:30:08;0.40;;;0.40;;
14923;SDS011;7554;43.600;1.480;2023-04-25T12:32:38;0.50;;;0.40;;
14923;SDS011;7554;43.600;1.480;2023-04-25T12:35:06;0.80;;;0.60;;
14923;SDS011;7554;43.600;1.480;2023-04-25T12:37:34;1.10;;;0.50;;
14923;SDS011;7554;43.600;1.480;2023-04-25T12:40:02;0.70;;;0.50;;
14923;SDS011;7554;43.600;1.480;2023-04-25T12:42:31;0.83;;;0.53;;
14923;SDS011;7554;43.600;1.480;2023-04-25T12:44:59;0.83;;;0.50;;
14923;SDS011;7554;43.600;1.480;2023-04-25T12:47:26;0.70;;;0.60;;
14923;SDS011;7554;43.600;1.480;2023-04-25T12:49:55;1.47;;;0.70;;
14923;SDS011;7554;43.600;1.480;2023-04-25T12:52:22;2.13;;;0.70;;
14923;SDS011;7554;43.600;1.480;2023-04-25T12:54:49;0.70;;;0.60;;
14923;SDS011;7554;43.600;1.480;2023-04-25T12:57:16;1.47;;;0.80;;
14923;SDS011;7554;43.600;1.480;2023-04-25T12:59:44;1.10;;;0.80;;
14923;SDS011;7554;43.600;1.480;2023-04-25T13:02:11;1.50;;;0.93;;
14923;SDS011;7554;43.600;1.480;2023-04-25T13:04:38;2.60;;;0.70;;
14923;SDS011;7554;43.600;1.480;2023-04-25T13:07:07;1.20;;;0.80;;
14923;SDS011;7554;43.600;1.480;2023-04-25T13:09:34;0.80;;;0.80;;
14923;SDS011;7554;43.600;1.480;2023-04-25T13:12:02;0.97;;;0.77;;
14923;SDS011;7554;43.600;1.480;2023-04-25T13:14:30;2.17;;;0.80;;
14923;SDS011;7554;43.600;1.480;2023-04-25T13:16:57;1.90;;;0.90;;
14923;SDS011;7554;43.600;1.480;2023-04-25T13:19:24;4.30;;;0.93;;
14923;SDS011;7554;43.600;1.480;2023-04-25T13:21:52;1.43;;;0.73;;
14923;SDS011;7554;43.600;1.480;2023-04-25T13:24:21;1.93;;;0.93;;
14923;SDS011;7554;43.600;1.480;2023-04-25T13:26:48;2.03;;;1.10;;
14923;SDS011;7554;43.600;1.480;2023-04-25T13:29:15;1.07;;;0.87;;
14923;SDS011;7554;43.600;1.480;2023-04-25T13:31:42;3.50;;;0.90;;
14923;SDS011;7554;43.600;1.480;2023-04-25T13:34:10;1.20;;;1.10;;
14923;SDS011;7554;43.600;1.480;2023-04-25T13:36:38;1.40;;;1.10;;
14923;SDS011;7554;43.600;1.480;2023-04-25T13:39:05;1.60;;;1.00;;
14923;SDS011;7554;43.600;1.480;2023-04-25T13:41:34;2.03;;;1.10;;
14923;SDS011;7554;43.600;1.480;2023-04-25T13:44:02;1.87;;;1.40;;
14923;SDS011;7554;43.600;1.480;2023-04-25T13:46:29;1.77;;;1.30;;
14923;SDS011;7554;43.600;1.480;2023-04-25T13:48:56;2.50;;;0.80;;
14923;SDS011;7554;43.600;1.480;2023-04-25T13:51:24;1.00;;;0.53;;
14923;SDS011;7554;43.600;1.480;2023-04-25T13:53:51;0.70;;;0.57;;
14923;SDS011;7554;43.600;1.480;2023-04-25T13:56:18;1.40;;;0.60;;
14923;SDS011;7554;43.600;1.480;2023-04-25T13:58:48;1.07;;;0.70;;
14923;SDS011;7554;43.600;1.480;2023-04-25T14:01:16;1.00;;;0.60;;
14923;SDS011;7554;43.600;1.480;2023-04-25T14:03:45;1.03;;;0.60;;
14923;SDS011;7554;43.600;1.480;2023-04-25T14:06:12;2.97;;;0.70;;
14923;SDS011;7554;43.600;1.480;2023-04-25T14:08:46;0.60;;;0.57;;
14923;SDS011;7554;43.600;1.480;2023-04-25T14:11:13;1.63;;;0.70;;
14923;SDS011;7554;43.600;1.480;2023-04-25T14:13:43;1.87;;;0.83;;
14923;SDS011;7554;43.600;1.480;2023-04-25T14:16:12;1.23;;;1.07;;
14923;SDS011;7554;43.600;1.480;2023-04-25T14:18:39;0.63;;;0.57;;
14923;SDS011;7554;43.600;1.480;2023-04-25T14:21:07;0.77;;;0.70;;
14923;SDS011;7554;43.600;1.480;2023-04-25T14:23:35;1.77;;;0.87;;
14923;SDS011;7554;43.600;1.480;2023-04-25T14:26:03;1.50;;;1.17;;
14923;SDS011;7554;43.600;1.480;2023-04-25T14:28:30;1.43;;;0.87;;
14923;SDS011;7554;43.600;1.480;2023-04-25T14:30:58;1.03;;;0.70;;
14923;SDS011;7554;43.600;1.480;2023-04-25T14:33:27;3.73;;;1.37;;
14923;SDS011;7554;43.600;1.480;2023-04-25T14:35:54;0.67;;;0.60;;
14923;SDS011;7554;43.600;1.480;2023-04-25T14:38:21;1.53;;;0.90;;
14923;SDS011;7554;43.600;1.480;2023-04-25T14:40:50;2.47;;;1.00;;
14923;SDS011;7554;43.600;1.480;2023-04-25T14:43:19;1.57;;;0.80;;
14923;SDS011;7554;43.600;1.480;2023-04-25T14:45:46;1.20;;;0.80;;
14923;SDS011;7554;43.600;1.480;2023-04-25T14:48:13;1.07;;;0.80;;
14923;SDS011;7554;43.600;1.480;2023-04-25T14:50:42;0.87;;;0.63;;
14923;SDS011;7554;43.600;1.480;2023-04-25T14:53:10;0.80;;;0.60;;
14923;SDS011;7554;43.600;1.480;2023-04-25T14:55:37;1.00;;;0.60;;
14923;SDS011;7554;43.600;1.480;2023-04-25T14:58:05;1.03;;;0.80;;
14923;SDS011;7554;43.600;1.480;2023-04-25T15:00:33;1.03;;;0.70;;
14923;SDS011;7554;43.600;1.480;2023-04-25T15:03:00;2.63;;;0.80;;
14923;SDS011;7554;43.600;1.480;2023-04-25T15:05:28;1.03;;;0.80;;
14923;SDS011;7554;43.600;1.480;2023-04-25T15:07:56;0.90;;;0.80;;